Terminal Aerodrome Forecast
Issued by NWS Twin Cities, MN

Home | Current Version | Previous Version | Text Only | Print | Product List | Glossary On
Versions: 1 2 3 4 5 6 7 8 9 10 11 12 13 14 15 16 17 18 19
000
FTUS43 KMPX 061124 AAA
TAFSTC
TAF AMD
KSTC 061124Z 0611/0712 12008KT 1 1/2SM BR OVC003
     FM061500 13011KT 6SM BR VCSH SCT007 OVC015
     FM061800 14013G20KT P6SM VCSH SCT015 BKN035
     FM062100 15015G24KT 4SM -SHRA BR VCTS SCT020 OVC035CB
     FM070200 14011KT P6SM OVC040=

USA.gov is the U.S. government's official web portal to all federal, state and local government web resources and services.